X  Schlie├čen Metar Luftfahrt Wetterdaten     EBBR Brussels Airport
Temperatur
19°C Temperatur
13°C Taupunkt
68% Feuchtigkeit



Wind
23 KM/H
14 MPH
6 M/S
12 KTS



250°
WSW
Aktuelle Wetterlage

Meistens vereinzelte Wolken Meistens vereinzelte Wolken
Luftdruck 1031.83 (hPa) - 30.47 (inHg)
Sichtweite 6 (Meile) - 9.7 (km)
Flughafen
Flughafen Code EBBR

Position : Brussels Airport
Entfernung: 14 (km)

Metar:
EBBR 121020Z 25012KT 9999 SCT033 19/13 Q1032 NOSIG

Zeit: 2024-04-12 12:20 CEST